createdAt,value
2023-04-16T00:02:29.488Z,14.72
2023-04-16T00:05:00.295Z,14.69
2023-04-16T00:07:31.146Z,14.69
2023-04-16T00:10:01.827Z,14.67
2023-04-16T00:12:32.472Z,14.63
2023-04-16T00:15:03.148Z,14.61
2023-04-16T00:17:33.861Z,14.59
2023-04-16T00:20:04.635Z,14.57
2023-04-16T00:22:35.211Z,14.53
2023-04-16T00:25:06.349Z,14.49
2023-04-16T00:27:36.976Z,14.48
2023-04-16T00:30:09.208Z,14.47
2023-04-16T00:32:39.764Z,14.47
2023-04-16T00:35:11.212Z,14.47
2023-04-16T00:37:41.723Z,14.45
2023-04-16T00:40:13.663Z,14.43
2023-04-16T00:42:42.986Z,14.43
2023-04-16T00:45:14.560Z,14.43
2023-04-16T00:47:45.182Z,14.43
2023-04-16T00:50:16.002Z,14.42
2023-04-16T00:52:47.780Z,14.42
2023-04-16T00:55:19.159Z,14.37
2023-04-16T00:57:49.768Z,14.30
2023-04-16T01:00:21.405Z,14.24
2023-04-16T01:02:52.089Z,14.19
2023-04-16T01:05:22.925Z,14.18
2023-04-16T01:07:53.468Z,14.15
2023-04-16T01:10:24.248Z,14.13
2023-04-16T01:12:55.345Z,14.09
2023-04-16T01:15:26.133Z,14.05
2023-04-16T01:17:56.704Z,14.01
2023-04-16T01:20:27.343Z,13.99
2023-04-16T01:22:57.879Z,13.97
2023-04-16T01:25:28.456Z,13.96
2023-04-16T01:27:59.371Z,13.95
2023-04-16T01:30:30.598Z,13.94
2023-04-16T01:33:23.010Z,13.94
2023-04-16T01:35:53.743Z,13.94
2023-04-16T01:38:24.365Z,13.93
2023-04-16T01:40:59.546Z,13.93
2023-04-16T01:43:30.173Z,13.92
2023-04-16T01:46:13.544Z,13.91
2023-04-16T01:48:45.279Z,13.89
2023-04-16T01:51:15.892Z,13.87
2023-04-16T01:53:46.399Z,13.85
2023-04-16T01:56:16.969Z,13.84
2023-04-16T01:58:47.590Z,13.81
2023-04-16T02:01:19.002Z,13.80
2023-04-16T02:03:50.241Z,13.78
2023-04-16T02:06:20.914Z,13.76
2023-04-16T02:08:51.661Z,13.73
2023-04-16T02:11:23.624Z,13.72
2023-04-16T02:13:54.511Z,13.70
2023-04-16T02:16:26.471Z,13.67
2023-04-16T02:19:03.486Z,13.65
2023-04-16T02:21:35.530Z,13.66
2023-04-16T02:24:06.535Z,13.64
2023-04-16T02:26:37.709Z,13.63
2023-04-16T02:29:12.002Z,13.60
2023-04-16T02:31:46.821Z,13.59
2023-04-16T02:34:17.946Z,13.57
2023-04-16T02:36:48.795Z,13.56
2023-04-16T02:39:20.146Z,13.54
2023-04-16T02:41:50.738Z,13.53
2023-04-16T02:44:21.368Z,13.52
2023-04-16T02:46:51.897Z,13.48
2023-04-16T02:49:22.639Z,13.46
2023-04-16T02:51:53.263Z,13.40
2023-04-16T02:54:23.772Z,13.37
2023-04-16T02:56:54.745Z,13.34
2023-04-16T02:59:25.807Z,13.32
2023-04-16T03:01:56.546Z,13.28
2023-04-16T03:04:27.444Z,13.24
2023-04-16T03:06:58.029Z,13.20
2023-04-16T03:09:28.522Z,13.16
2023-04-16T03:11:59.049Z,13.15
2023-04-16T03:14:29.730Z,13.15
2023-04-16T03:17:00.329Z,13.16
2023-04-16T03:19:31.318Z,13.15
2023-04-16T03:22:01.842Z,13.13
2023-04-16T03:24:32.352Z,13.12
2023-04-16T03:27:03.286Z,13.11
2023-04-16T03:29:33.990Z,13.10
2023-04-16T03:32:04.535Z,13.11
2023-04-16T03:34:36.856Z,13.10
2023-04-16T03:37:09.048Z,13.09
2023-04-16T03:39:40.118Z,13.08
2023-04-16T03:42:10.722Z,13.07
2023-04-16T03:44:41.297Z,13.06
2023-04-16T03:47:13.103Z,13.05
2023-04-16T03:49:43.700Z,13.03
2023-04-16T03:52:15.100Z,13.01
2023-04-16T03:54:45.988Z,13.00
2023-04-16T03:57:25.091Z,13.01
2023-04-16T03:59:58.200Z,13.02
2023-04-16T04:02:30.516Z,13.02
2023-04-16T04:05:01.291Z,13.02
2023-04-16T04:07:32.502Z,13.02
2023-04-16T04:10:03.327Z,13.03
2023-04-16T04:12:36.805Z,13.02
2023-04-16T04:15:09.327Z,13.00
2023-04-16T04:17:39.993Z,12.95
2023-04-16T04:20:12.858Z,12.92
2023-04-16T04:22:46.394Z,12.90
2023-04-16T04:25:17.159Z,12.88
2023-04-16T04:27:47.710Z,12.87
2023-04-16T04:30:18.391Z,12.87
2023-04-16T04:32:49.024Z,12.87
2023-04-16T04:35:20.111Z,12.84
2023-04-16T04:37:51.752Z,12.83
2023-04-16T04:40:23.542Z,12.82
2023-04-16T04:42:56.121Z,12.85
2023-04-16T04:45:27.618Z,12.87
2023-04-16T04:47:59.693Z,12.88
2023-04-16T04:50:30.654Z,12.88
2023-04-16T04:53:01.414Z,12.88
2023-04-16T04:55:32.004Z,12.88
2023-04-16T04:58:02.681Z,12.89
2023-04-16T05:00:33.350Z,12.89
2023-04-16T05:03:06.531Z,12.89
2023-04-16T05:05:37.231Z,12.90
2023-04-16T05:08:07.970Z,12.87
2023-04-16T05:10:38.566Z,12.83
2023-04-16T05:13:09.189Z,12.82
2023-04-16T05:15:40.275Z,12.81
2023-04-16T05:18:10.806Z,12.82
2023-04-16T05:20:41.347Z,12.83
2023-04-16T05:23:11.781Z,12.81
2023-04-16T05:25:42.286Z,12.80
2023-04-16T05:28:12.857Z,12.81
2023-04-16T05:30:43.308Z,12.84
2023-04-16T05:33:13.802Z,12.89
2023-04-16T05:35:44.257Z,12.92
2023-04-16T05:38:14.706Z,12.92
2023-04-16T05:40:45.131Z,12.93
2023-04-16T05:43:15.577Z,12.94
2023-04-16T05:45:46.080Z,12.95
2023-04-16T05:48:16.542Z,12.95
2023-04-16T05:50:47.018Z,12.95
2023-04-16T05:53:18.993Z,12.94
2023-04-16T05:55:49.493Z,12.92
2023-04-16T05:58:19.952Z,12.91
2023-04-16T06:00:50.597Z,12.92
2023-04-16T06:03:21.457Z,12.96
2023-04-16T06:05:52.120Z,12.98
2023-04-16T06:08:22.616Z,12.96
2023-04-16T06:10:53.212Z,12.95
2023-04-16T06:13:23.761Z,12.92
2023-04-16T06:15:54.288Z,12.91
2023-04-16T06:18:24.857Z,12.91
2023-04-16T06:20:55.441Z,12.90
2023-04-16T06:23:26.032Z,12.89
2023-04-16T06:25:56.642Z,12.88
2023-04-16T06:28:27.322Z,12.92
2023-04-16T06:31:18.008Z,12.93
2023-04-16T06:34:43.720Z,12.93
2023-04-16T06:37:14.329Z,12.94
2023-04-16T06:39:56.629Z,12.93
2023-04-16T06:42:27.348Z,12.90
2023-04-16T06:44:57.834Z,12.88
2023-04-16T06:47:28.498Z,12.90
2023-04-16T06:50:21.327Z,12.90
2023-04-16T06:53:17.180Z,12.91
2023-04-16T06:55:47.686Z,12.94
2023-04-16T06:58:18.201Z,13.01
2023-04-16T07:00:52.996Z,13.07
2023-04-16T07:03:29.172Z,13.09
2023-04-16T07:05:59.841Z,13.10
2023-04-16T07:08:30.558Z,13.11
2023-04-16T07:11:01.185Z,13.15
2023-04-16T07:13:31.715Z,13.21
2023-04-16T07:16:02.301Z,13.25
2023-04-16T07:18:33.073Z,13.26
2023-04-16T07:21:03.613Z,13.27
2023-04-16T07:23:34.084Z,13.31
2023-04-16T07:26:04.549Z,13.35
2023-04-16T07:28:35.016Z,13.37
2023-04-16T07:31:05.832Z,13.39
2023-04-16T07:33:36.477Z,13.39
2023-04-16T07:36:07.987Z,13.40
2023-04-16T07:38:38.422Z,13.38
2023-04-16T07:41:08.971Z,13.35
2023-04-16T07:43:39.922Z,13.34
2023-04-16T07:46:10.448Z,13.34
2023-04-16T07:48:40.976Z,13.32
2023-04-16T07:51:12.489Z,13.31
2023-04-16T07:53:43.664Z,13.31
2023-04-16T07:56:14.145Z,13.32
2023-04-16T07:58:44.617Z,13.30
2023-04-16T08:01:15.153Z,13.31
2023-04-16T08:03:46.304Z,13.30
2023-04-16T08:06:16.886Z,13.31
2023-04-16T08:08:47.419Z,13.32
2023-04-16T08:11:17.879Z,13.32
2023-04-16T08:13:48.633Z,13.35
2023-04-16T08:16:19.185Z,13.37
2023-04-16T08:18:49.668Z,13.40
2023-04-16T08:21:20.186Z,13.42
2023-04-16T08:23:50.829Z,13.44
2023-04-16T08:26:21.554Z,13.50
2023-04-16T08:28:54.975Z,13.57
2023-04-16T08:31:25.667Z,13.62
2023-04-16T08:33:56.450Z,13.66
2023-04-16T08:36:27.771Z,13.72
2023-04-16T08:38:58.385Z,13.77
2023-04-16T08:41:30.848Z,13.81
2023-04-16T08:44:06.671Z,13.85
2023-04-16T08:46:39.367Z,13.89
2023-04-16T08:49:18.067Z,13.93
2023-04-16T08:51:53.241Z,13.98
2023-04-16T08:54:40.346Z,14.01
2023-04-16T08:57:13.657Z,14.04
2023-04-16T08:59:47.116Z,14.06
2023-04-16T09:02:18.106Z,14.10
2023-04-16T09:04:49.723Z,14.12
2023-04-16T09:07:23.109Z,14.15
2023-04-16T09:09:56.060Z,14.18
2023-04-16T09:12:28.413Z,14.21
2023-04-16T09:15:02.808Z,14.23
2023-04-16T09:17:35.403Z,14.26
2023-04-16T09:20:08.737Z,14.28
2023-04-16T09:22:40.129Z,14.31
2023-04-16T09:25:12.409Z,14.33
2023-04-16T09:27:43.765Z,14.37
2023-04-16T09:30:26.131Z,14.39
2023-04-16T09:33:16.838Z,14.42
2023-04-16T09:35:51.666Z,14.47
2023-04-16T09:38:22.734Z,14.49
2023-04-16T09:41:09.152Z,14.52
2023-04-16T09:43:39.964Z,14.56
2023-04-16T09:46:13.960Z,14.59
2023-04-16T09:48:48.257Z,14.63
2023-04-16T09:51:18.828Z,14.66
2023-04-16T09:53:52.809Z,14.71
2023-04-16T09:56:28.021Z,14.73
2023-04-16T09:59:02.248Z,14.76
2023-04-16T10:01:33.512Z,14.79
2023-04-16T10:04:07.773Z,14.82
2023-04-16T10:06:38.513Z,14.83
2023-04-16T10:09:12.198Z,14.86
2023-04-16T10:11:43.287Z,14.88
2023-04-16T10:14:13.778Z,14.89
2023-04-16T10:16:44.526Z,14.90
2023-04-16T10:19:15.730Z,14.91
2023-04-16T10:21:46.892Z,14.93
2023-04-16T10:24:18.999Z,14.93
2023-04-16T10:27:41.346Z,14.93
2023-04-16T10:30:16.747Z,14.93
2023-04-16T10:32:48.572Z,14.94
2023-04-16T10:35:21.974Z,14.95
2023-04-16T10:37:57.020Z,14.95
2023-04-16T10:40:29.553Z,14.96
2023-04-16T10:43:01.600Z,14.97
2023-04-16T10:45:39.719Z,14.98
2023-04-16T10:48:11.871Z,14.99
2023-04-16T10:50:42.589Z,15.00
2023-04-16T10:53:24.383Z,15.01
2023-04-16T10:56:13.672Z,15.02
2023-04-16T10:58:44.509Z,15.04
2023-04-16T11:01:17.156Z,15.06
2023-04-16T11:03:49.610Z,15.08
2023-04-16T11:06:27.758Z,15.10
2023-04-16T11:08:58.608Z,15.12
2023-04-16T11:11:38.173Z,15.14
2023-04-16T11:14:10.420Z,15.16
2023-04-16T11:16:43.567Z,15.20
2023-04-16T11:19:19.719Z,15.23
2023-04-16T11:21:50.286Z,15.27
2023-04-16T11:24:20.858Z,15.30
2023-04-16T11:26:53.628Z,15.34
2023-04-16T11:29:24.224Z,15.39
2023-04-16T11:31:55.751Z,15.43
2023-04-16T11:34:27.093Z,15.47
2023-04-16T11:36:57.970Z,15.52
2023-04-16T11:39:28.501Z,15.57
2023-04-16T11:41:58.993Z,15.62
2023-04-16T11:44:30.445Z,15.67
2023-04-16T11:47:06.959Z,15.72
2023-04-16T11:49:37.464Z,15.77
2023-04-16T11:52:08.179Z,15.82
2023-04-16T11:54:38.720Z,15.88
2023-04-16T11:57:09.549Z,15.92
2023-04-16T12:00:01.540Z,15.98
2023-04-16T12:02:44.711Z,16.04
2023-04-16T12:08:11.680Z,16.16
2023-04-16T12:10:56.793Z,16.20
2023-04-16T12:13:27.391Z,16.26
2023-04-16T12:15:58.670Z,16.32
2023-04-16T12:18:29.251Z,16.36
2023-04-16T12:20:59.741Z,16.40
2023-04-16T12:23:31.798Z,16.44
2023-04-16T12:26:12.228Z,16.48
2023-04-16T12:28:42.744Z,16.54
2023-04-16T12:31:13.308Z,16.60
2023-04-16T12:33:43.931Z,16.64
2023-04-16T12:36:24.706Z,16.68
2023-04-16T12:38:55.161Z,16.74
2023-04-16T12:41:26.231Z,16.77
2023-04-16T12:44:06.857Z,16.83
2023-04-16T12:46:38.390Z,16.90
2023-04-16T12:49:10.603Z,16.95
2023-04-16T12:51:41.690Z,16.98
2023-04-16T12:54:12.237Z,17.01
2023-04-16T12:56:42.705Z,17.03
2023-04-16T12:59:13.215Z,17.07
2023-04-16T13:01:43.808Z,17.12
2023-04-16T13:04:14.351Z,17.15
2023-04-16T13:06:45.013Z,17.20
2023-04-16T13:09:15.602Z,17.24
2023-04-16T13:11:46.167Z,17.28
2023-04-16T13:14:16.710Z,17.32
2023-04-16T13:16:47.194Z,17.34
2023-04-16T13:19:19.216Z,17.36
2023-04-16T13:21:50.011Z,17.37
2023-04-16T13:24:20.512Z,17.38
2023-04-16T13:26:52.102Z,17.38
2023-04-16T13:29:22.694Z,17.40
2023-04-16T13:31:53.326Z,17.42
2023-04-16T13:34:24.597Z,17.45
2023-04-16T13:36:55.193Z,17.48
2023-04-16T13:39:26.048Z,17.50
2023-04-16T13:41:56.579Z,17.53
2023-04-16T13:44:27.114Z,17.57
2023-04-16T13:46:57.721Z,17.61
2023-04-16T13:49:28.368Z,17.66
2023-04-16T13:51:58.956Z,17.70
2023-04-16T13:54:29.806Z,17.74
2023-04-16T13:57:00.344Z,17.78
2023-04-16T13:59:30.933Z,17.83
2023-04-16T14:02:01.825Z,17.87
2023-04-16T14:04:32.350Z,17.92
2023-04-16T14:07:02.840Z,17.96
2023-04-16T14:09:36.876Z,18.00
2023-04-16T14:12:08.417Z,18.03
2023-04-16T14:14:39.055Z,18.06
2023-04-16T14:17:10.815Z,18.08
2023-04-16T14:19:39.813Z,18.13
2023-04-16T14:22:10.766Z,18.15
2023-04-16T14:24:41.296Z,18.18
2023-04-16T14:27:12.229Z,18.21
2023-04-16T14:29:42.873Z,18.25
2023-04-16T14:32:13.622Z,18.29
2023-04-16T14:34:44.350Z,18.33
2023-04-16T14:37:17.286Z,18.36
2023-04-16T14:39:51.053Z,18.40
2023-04-16T14:42:22.433Z,18.43
2023-04-16T14:44:52.872Z,18.45
2023-04-16T14:47:23.617Z,18.48
2023-04-16T14:49:54.129Z,18.53
2023-04-16T14:52:24.650Z,18.57
2023-04-16T14:54:55.977Z,18.59
2023-04-16T14:57:26.803Z,18.62
2023-04-16T14:59:57.268Z,18.64
2023-04-16T15:02:27.889Z,18.67
2023-04-16T15:04:58.488Z,18.69
2023-04-16T15:07:29.015Z,18.71
2023-04-16T15:09:59.911Z,18.73
2023-04-16T15:12:30.440Z,18.76
2023-04-16T15:15:00.933Z,18.77
2023-04-16T15:17:31.514Z,18.80
2023-04-16T15:20:02.085Z,18.82
2023-04-16T15:22:32.530Z,18.84
2023-04-16T15:25:03.412Z,18.86
2023-04-16T15:27:33.914Z,18.88
2023-04-16T15:30:04.644Z,18.90
2023-04-16T15:32:35.271Z,18.91
2023-04-16T15:35:07.045Z,18.94
2023-04-16T15:37:38.883Z,18.94
2023-04-16T15:40:11.199Z,18.93
2023-04-16T15:42:41.674Z,18.92
2023-04-16T15:45:13.062Z,18.91
2023-04-16T15:47:45.395Z,18.92
2023-04-16T15:50:16.106Z,18.92
2023-04-16T15:52:46.675Z,18.92
2023-04-16T15:55:18.007Z,18.91
2023-04-16T15:57:48.872Z,18.88
2023-04-16T16:00:20.816Z,18.85
2023-04-16T16:02:51.736Z,18.83
2023-04-16T16:09:56.373Z,18.79
2023-04-16T16:12:27.368Z,18.77
2023-04-16T16:14:58.313Z,18.76
2023-04-16T16:17:29.227Z,18.73
2023-04-16T16:20:01.132Z,18.72
2023-04-16T16:22:31.780Z,18.71
2023-04-16T16:25:02.281Z,18.70
2023-04-16T16:27:32.913Z,18.68
2023-04-16T16:30:04.745Z,18.68
2023-04-16T16:32:38.087Z,18.66
2023-04-16T16:35:10.990Z,18.64
2023-04-16T16:37:41.644Z,18.61
2023-04-16T16:40:13.070Z,18.60
2023-04-16T16:42:43.581Z,18.58
2023-04-16T16:45:14.512Z,18.56
2023-04-16T16:47:45.981Z,18.54
2023-04-16T16:50:16.634Z,18.53
2023-04-16T16:52:47.310Z,18.51
2023-04-16T16:55:19.007Z,18.50
2023-04-16T16:57:50.110Z,18.48
2023-04-16T17:00:21.991Z,18.47
2023-04-16T17:02:52.800Z,18.45
2023-04-16T17:05:24.351Z,18.43
2023-04-16T17:07:54.902Z,18.43
2023-04-16T17:10:25.470Z,18.42
2023-04-16T17:12:56.012Z,18.40
2023-04-16T17:15:26.918Z,18.36
2023-04-16T17:17:57.535Z,18.31
2023-04-16T17:20:28.319Z,18.25
2023-04-16T17:22:59.499Z,18.22
2023-04-16T17:25:30.276Z,18.18
2023-04-16T17:28:01.492Z,18.16
2023-04-16T17:30:32.953Z,18.15
2023-04-16T17:33:04.729Z,18.14
2023-04-16T17:35:35.663Z,18.11
2023-04-16T17:38:06.184Z,18.08
2023-04-16T17:40:36.798Z,18.04
2023-04-16T17:43:07.373Z,17.99
2023-04-16T17:45:37.979Z,17.96
2023-04-16T17:48:08.937Z,17.93
2023-04-16T17:50:39.835Z,17.91
2023-04-16T17:53:11.133Z,17.87
2023-04-16T17:55:42.772Z,17.82
2023-04-16T17:58:13.616Z,17.78
2023-04-16T18:00:45.887Z,17.74
2023-04-16T18:03:17.041Z,17.71
2023-04-16T18:05:48.320Z,17.69
2023-04-16T18:08:18.810Z,17.67
2023-04-16T18:10:49.316Z,17.64
2023-04-16T18:13:19.838Z,17.62
2023-04-16T18:15:50.435Z,17.59
2023-04-16T18:18:21.449Z,17.56
2023-04-16T18:20:53.103Z,17.54
2023-04-16T18:23:23.573Z,17.53
2023-04-16T18:25:54.518Z,17.50
2023-04-16T18:28:25.134Z,17.48
2023-04-16T18:30:58.764Z,17.47
2023-04-16T18:33:52.392Z,17.47
2023-04-16T18:36:21.221Z,17.44
2023-04-16T18:39:00.848Z,17.43
2023-04-16T18:41:32.237Z,17.42
2023-04-16T18:44:02.689Z,17.40
2023-04-16T18:46:33.201Z,17.38
2023-04-16T18:49:03.705Z,17.36
2023-04-16T18:51:34.301Z,17.33
2023-04-16T18:54:04.964Z,17.31
2023-04-16T18:56:35.749Z,17.29
2023-04-16T18:59:06.518Z,17.27
2023-04-16T19:01:37.023Z,17.26
2023-04-16T19:04:07.880Z,17.24
2023-04-16T19:06:38.384Z,17.23
2023-04-16T19:09:11.230Z,17.22
2023-04-16T19:11:42.174Z,17.20
2023-04-16T19:14:12.703Z,17.19
2023-04-16T19:16:43.426Z,17.18
2023-04-16T19:19:14.062Z,17.17
2023-04-16T19:21:44.559Z,17.17
2023-04-16T19:24:15.034Z,17.16
2023-04-16T19:26:45.567Z,17.16
2023-04-16T19:29:18.026Z,17.15
2023-04-16T19:31:48.606Z,17.14
2023-04-16T19:34:19.209Z,17.14
2023-04-16T19:36:49.695Z,17.13
2023-04-16T19:39:20.240Z,17.13
2023-04-16T19:41:50.684Z,17.12
2023-04-16T19:44:23.150Z,17.12
2023-04-16T19:46:53.582Z,17.11
2023-04-16T19:49:25.363Z,17.10
2023-04-16T19:51:55.843Z,17.10
2023-04-16T19:54:26.460Z,17.09
2023-04-16T19:56:57.250Z,17.08
2023-04-16T19:59:28.715Z,17.07
2023-04-16T20:01:59.266Z,17.06
2023-04-16T20:04:29.833Z,17.05
2023-04-16T20:07:00.401Z,17.04
2023-04-16T20:09:31.116Z,17.02
2023-04-16T20:12:02.210Z,17.00
2023-04-16T20:14:32.695Z,16.98
2023-04-16T20:17:03.529Z,16.97
2023-04-16T20:19:37.890Z,16.96
2023-04-16T20:22:08.612Z,16.95
2023-04-16T20:24:39.399Z,16.96
2023-04-16T20:27:09.877Z,16.95
2023-04-16T20:29:40.438Z,16.95
2023-04-16T20:32:10.902Z,16.94
2023-04-16T20:34:41.446Z,16.94
2023-04-16T20:37:11.881Z,16.91
2023-04-16T20:39:42.385Z,16.88
2023-04-16T20:42:13.278Z,16.85
2023-04-16T20:44:50.292Z,16.83
2023-04-16T20:47:22.538Z,16.82
2023-04-16T20:49:54.728Z,16.82
2023-04-16T20:52:25.752Z,16.82
2023-04-16T20:54:56.272Z,16.81
2023-04-16T20:57:28.162Z,16.80
2023-04-16T21:04:06.784Z,16.75
2023-04-16T21:06:38.638Z,16.73
2023-04-16T21:09:07.747Z,16.69
2023-04-16T21:11:38.421Z,16.65
2023-04-16T21:14:08.887Z,16.61
2023-04-16T21:16:39.391Z,16.58
2023-04-16T21:19:09.998Z,16.57
2023-04-16T21:21:41.810Z,16.55
2023-04-16T21:24:12.464Z,16.55
2023-04-16T21:26:43.083Z,16.55
2023-04-16T21:29:13.769Z,16.55
2023-04-16T21:31:44.586Z,16.57
2023-04-16T21:34:15.079Z,16.57
2023-04-16T21:36:45.767Z,16.57
2023-04-16T21:39:17.549Z,16.55
2023-04-16T21:41:46.565Z,16.53
2023-04-16T21:44:17.134Z,16.50
2023-04-16T21:46:47.867Z,16.47
2023-04-16T21:49:18.350Z,16.44
2023-04-16T21:51:50.135Z,16.43
2023-04-16T21:54:20.305Z,16.40
2023-04-16T21:56:50.802Z,16.36
2023-04-16T21:59:21.340Z,16.34
2023-04-16T22:06:16.825Z,16.29
2023-04-16T22:08:50.033Z,16.28
2023-04-16T22:11:20.782Z,16.28
2023-04-16T22:13:51.899Z,16.27
2023-04-16T22:16:22.472Z,16.26
2023-04-16T22:18:55.124Z,16.25
2023-04-16T22:21:26.123Z,16.25
2023-04-16T22:23:56.618Z,16.24
2023-04-16T22:26:27.162Z,16.23
2023-04-16T22:28:57.662Z,16.21
2023-04-16T22:31:28.226Z,16.20
2023-04-16T22:33:58.774Z,16.20
2023-04-16T22:36:29.833Z,16.19
2023-04-16T22:39:00.662Z,16.17
2023-04-16T22:41:31.128Z,16.15
2023-04-16T22:44:01.636Z,16.14
2023-04-16T22:46:32.476Z,16.12
2023-04-16T22:49:03.108Z,16.11
2023-04-16T22:51:34.225Z,16.09
2023-04-16T22:54:05.075Z,16.07
2023-04-16T22:56:35.692Z,16.07
2023-04-16T22:59:06.180Z,16.05
2023-04-16T23:01:37.175Z,16.04
2023-04-16T23:04:07.912Z,16.02
2023-04-16T23:06:39.232Z,16.01
2023-04-16T23:09:09.999Z,16.00
2023-04-16T23:11:40.664Z,15.98
2023-04-16T23:14:11.171Z,15.95
2023-04-16T23:16:41.740Z,15.92
2023-04-16T23:19:14.956Z,15.90
2023-04-16T23:21:45.679Z,15.89
2023-04-16T23:24:17.138Z,15.88
2023-04-16T23:26:48.064Z,15.87
2023-04-16T23:29:18.509Z,15.83
2023-04-16T23:31:49.037Z,15.79
2023-04-16T23:34:19.488Z,15.75
2023-04-16T23:36:49.972Z,15.71
2023-04-16T23:39:20.459Z,15.68
2023-04-16T23:41:51.481Z,15.66
2023-04-16T23:44:21.956Z,15.66
2023-04-16T23:46:52.509Z,15.67
2023-04-16T23:49:23.003Z,15.69
2023-04-16T23:51:53.537Z,15.69
2023-04-16T23:54:24.307Z,15.66
2023-04-16T23:56:54.750Z,15.64
2023-04-16T23:59:25.459Z,15.63
